createdAt,value
2022-10-09T00:12:01.408Z,8.9
2022-10-09T00:17:01.415Z,8.8
2022-10-09T00:22:01.444Z,8.7
2022-10-09T00:32:01.261Z,8.6
2022-10-09T00:48:01.128Z,8.6
2022-10-09T00:58:01.436Z,8.5
2022-10-09T01:13:01.460Z,8.4
2022-10-09T01:28:01.324Z,8.3
2022-10-09T01:43:01.780Z,8.3
2022-10-09T01:58:01.376Z,8.3
2022-10-09T02:03:01.467Z,8.4
2022-10-09T02:18:01.336Z,8.4
2022-10-09T02:23:01.488Z,8.3
2022-10-09T02:33:01.428Z,8.2
2022-10-09T02:43:01.407Z,8.1
2022-10-09T02:48:01.298Z,8.0
2022-10-09T03:03:06.512Z,7.9
2022-10-09T03:13:01.364Z,8.0
2022-10-09T03:28:01.423Z,8.0
2022-10-09T03:38:01.366Z,7.9
2022-10-09T03:53:01.599Z,8.0
2022-10-09T03:58:02.343Z,8.1
2022-10-09T04:03:16.122Z,8.2
2022-10-09T04:08:01.257Z,8.3
2022-10-09T04:35:01.208Z,8.1
2022-10-09T04:45:00.899Z,8.1
2022-10-09T05:00:00.852Z,8.1
2022-10-09T05:15:00.817Z,8.1
2022-10-09T05:30:00.844Z,8.1
2022-10-09T05:40:00.830Z,8.0
2022-10-09T05:45:00.825Z,7.9
2022-10-09T05:50:00.869Z,7.8
2022-10-09T06:00:00.827Z,7.8
2022-10-09T06:10:01.069Z,7.9
2022-10-09T06:15:01.073Z,8.0
2022-10-09T06:20:01.157Z,8.1
2022-10-09T06:25:01.178Z,8.3
2022-10-09T06:30:06.176Z,8.5
2022-10-09T06:35:01.053Z,8.7
2022-10-09T06:40:01.053Z,8.9
2022-10-09T06:45:01.051Z,9.1
2022-10-09T06:50:01.085Z,9.2
2022-10-09T06:55:01.058Z,9.3
2022-10-09T07:00:02.858Z,9.4
2022-10-09T07:05:01.065Z,9.6
2022-10-09T07:10:01.088Z,9.7
2022-10-09T07:15:01.057Z,9.8
2022-10-09T07:20:01.089Z,9.9
2022-10-09T07:25:01.259Z,10.1
2022-10-09T07:30:01.104Z,10.2
2022-10-09T07:35:02.153Z,10.4
2022-10-09T07:40:01.098Z,10.5
2022-10-09T07:45:01.218Z,10.6
2022-10-09T07:50:01.172Z,10.7
2022-10-09T07:55:01.298Z,10.8
2022-10-09T08:00:15.885Z,10.8
2022-10-09T08:05:01.010Z,10.9
2022-10-09T08:15:01.241Z,10.9
2022-10-09T08:20:01.144Z,11.0
2022-10-09T08:25:01.611Z,11.1
2022-10-09T08:30:01.147Z,11.3
2022-10-09T08:35:01.185Z,11.5
2022-10-09T08:40:01.427Z,11.6
2022-10-09T08:45:01.241Z,11.8
2022-10-09T08:50:01.155Z,11.9
2022-10-09T08:55:01.363Z,12.2
2022-10-09T09:00:02.786Z,12.3
2022-10-09T09:05:01.172Z,12.6
2022-10-09T09:10:01.384Z,12.8
2022-10-09T09:15:01.209Z,13.0
2022-10-09T09:20:01.270Z,13.1
2022-10-09T09:25:01.146Z,13.3
2022-10-09T09:30:01.161Z,13.5
2022-10-09T09:35:01.313Z,13.6
2022-10-09T10:05:02.356Z,14.8
2022-10-09T10:15:01.246Z,14.8
2022-10-09T10:25:01.535Z,14.9
2022-10-09T10:30:01.103Z,14.9
2022-10-09T10:35:01.234Z,15.0
2022-10-09T10:45:01.470Z,15.1
2022-10-09T10:55:01.185Z,15.3
2022-10-09T11:00:02.531Z,15.5
2022-10-09T11:05:01.277Z,15.7
2022-10-09T11:10:01.120Z,16.0
2022-10-09T11:15:01.263Z,16.3
2022-10-09T11:20:01.147Z,16.5
2022-10-09T11:25:09.232Z,16.6
2022-10-09T11:30:01.126Z,16.6
2022-10-09T11:35:01.194Z,16.4
2022-10-09T11:40:01.134Z,16.2
2022-10-09T11:45:01.278Z,16.0
2022-10-09T11:50:01.143Z,15.8
2022-10-09T11:55:01.192Z,15.7
2022-10-09T12:00:02.547Z,15.8
2022-10-09T12:05:01.320Z,15.9
2022-10-09T12:10:01.197Z,16.0
2022-10-09T12:15:02.285Z,16.2
2022-10-09T12:20:01.426Z,16.3
2022-10-09T12:25:01.289Z,16.5
2022-10-09T12:30:01.207Z,16.6
2022-10-09T12:35:01.219Z,16.5
2022-10-09T12:40:01.233Z,16.3
2022-10-09T12:45:01.306Z,16.2
2022-10-09T12:50:01.178Z,15.9
2022-10-09T12:55:01.228Z,15.7
2022-10-09T13:00:03.947Z,15.8
2022-10-09T13:10:01.229Z,15.9
2022-10-09T13:15:01.287Z,15.9
2022-10-09T13:20:01.492Z,15.8
2022-10-09T13:30:01.519Z,15.7
2022-10-09T13:35:01.254Z,15.6
2022-10-09T13:45:01.341Z,15.6
2022-10-09T13:50:01.539Z,15.7
2022-10-09T14:00:02.400Z,15.7
2022-10-09T14:05:21.018Z,15.6
2022-10-09T14:10:01.297Z,15.5
2022-10-09T14:15:01.440Z,15.4
2022-10-09T14:20:01.346Z,15.3
2022-10-09T14:25:01.269Z,15.2
2022-10-09T14:30:01.677Z,15.1
2022-10-09T14:35:11.390Z,15.0
2022-10-09T14:40:01.195Z,14.8
2022-10-09T14:45:01.187Z,14.7
2022-10-09T14:50:01.195Z,14.5
2022-10-09T15:00:02.471Z,14.5
2022-10-09T15:15:01.247Z,14.5
2022-10-09T15:20:01.255Z,14.4
2022-10-09T15:30:01.236Z,14.3
2022-10-09T15:40:01.247Z,14.2
2022-10-09T15:45:01.494Z,14.2
2022-10-09T15:50:01.348Z,14.1
2022-10-09T16:00:02.650Z,14.0
2022-10-09T16:05:01.221Z,13.9
2022-10-09T16:10:01.254Z,13.8
2022-10-09T16:15:08.374Z,13.7
2022-10-09T16:20:01.267Z,13.6
2022-10-09T16:25:01.266Z,13.4
2022-10-09T16:30:01.322Z,13.3
2022-10-09T16:35:01.262Z,13.2
2022-10-09T16:40:01.537Z,13.1
2022-10-09T16:45:01.242Z,12.9
2022-10-09T16:50:01.314Z,12.8
2022-10-09T16:55:01.261Z,12.6
2022-10-09T17:00:02.300Z,12.4
2022-10-09T17:05:01.225Z,12.3
2022-10-09T17:10:01.244Z,12.2
2022-10-09T17:15:01.352Z,12.0
2022-10-09T17:25:05.771Z,11.9
2022-10-09T17:30:01.396Z,11.8
2022-10-09T17:35:01.405Z,11.7
2022-10-09T17:40:01.522Z,11.6
2022-10-09T17:45:01.253Z,11.5
2022-10-09T17:50:01.270Z,11.4
2022-10-09T17:55:01.409Z,11.2
2022-10-09T18:00:02.667Z,11.2
2022-10-09T18:05:07.612Z,11.0
2022-10-09T18:10:01.349Z,10.9
2022-10-09T18:15:01.348Z,10.7
2022-10-09T18:20:01.287Z,10.6
2022-10-09T18:25:01.323Z,10.5
2022-10-09T18:30:01.611Z,10.4
2022-10-09T18:35:01.418Z,10.3
2022-10-09T18:40:01.315Z,10.2
2022-10-09T18:45:01.425Z,10.2
2022-10-09T18:50:01.286Z,10.1
2022-10-09T18:55:01.493Z,10.0
2022-10-09T19:00:02.265Z,10.0
2022-10-09T19:15:01.366Z,10.0
2022-10-09T19:30:01.378Z,10.0
2022-10-09T19:35:01.274Z,10.1
2022-10-09T19:45:01.292Z,10.1
2022-10-09T19:50:02.340Z,10.2
2022-10-09T20:00:02.560Z,10.3
2022-10-09T20:15:01.487Z,10.3
2022-10-09T20:30:01.417Z,10.3
2022-10-09T20:35:01.558Z,10.4
2022-10-09T20:45:01.437Z,10.4
2022-10-09T21:00:02.603Z,10.4
2022-10-09T21:15:01.441Z,10.3
2022-10-09T21:30:01.501Z,10.3
2022-10-09T21:45:02.528Z,10.3
2022-10-09T22:00:02.309Z,10.3
2022-10-09T22:05:02.971Z,10.2
2022-10-09T22:15:02.538Z,10.2
2022-10-09T22:30:01.499Z,10.2
2022-10-09T22:40:01.431Z,10.3
2022-10-09T22:45:01.652Z,10.3
2022-10-09T23:00:01.122Z,10.3
2022-10-09T23:15:01.472Z,10.3
2022-10-09T23:25:06.876Z,10.2
2022-10-09T23:30:01.458Z,10.2
2022-10-09T23:45:01.466Z,10.2
